Time,TemperatureF,DewpointF,PressureIn,WindDirection,WindDirectionDegrees,WindSpeedMPH,WindSpeedGustMPH,Humidity,HourlyPrecipIn,Conditions,Clouds,dailyrainin,SolarRadiationWatts/m^2,SoftwareType,DateUTC
2013-06-16 00:02:00,69.0,65.0,-100.00,West,261,5.0,9.0,88,0.00,,,0.00,0.000000,,2013-06-16 04:02:00,
2013-06-16 00:34:00,67.0,64.0,-100.00,West,272,4.0,8.0,89,0.00,,,0.00,0.000000,,2013-06-16 04:34:00,
2013-06-16 00:43:00,67.0,64.0,-100.00,West,272,4.0,8.0,89,0.00,,,0.00,0.000000,,2013-06-16 04:43:00,
2013-06-16 00:53:00,67.0,64.0,-100.00,West,272,4.0,8.0,89,0.00,,,0.00,0.000000,,2013-06-16 04:53:00,
2013-06-16 01:02:00,67.0,64.0,-100.00,West,272,4.0,8.0,89,0.00,,,0.00,0.000000,,2013-06-16 05:02:00,
2013-06-16 01:34:00,66.0,64.0,-100.00,West,275,4.0,6.0,92,0.00,,,0.00,0.000000,,2013-06-16 05:34:00,
2013-06-16 01:43:00,66.0,64.0,-100.00,West,275,4.0,6.0,92,0.00,,,0.00,0.000000,,2013-06-16 05:43:00,
2013-06-16 01:52:00,66.0,64.0,-100.00,West,275,4.0,6.0,92,0.00,,,0.00,0.000000,,2013-06-16 05:52:00,
2013-06-16 02:01:00,66.0,64.0,-100.00,West,275,4.0,6.0,92,0.00,,,0.00,0.000000,,2013-06-16 06:01:00,
2013-06-16 02:33:00,64.0,62.0,-100.00,West,277,4.0,6.0,94,0.00,,,0.00,0.000000,,2013-06-16 06:33:00,
2013-06-16 02:43:00,64.0,62.0,-100.00,West,277,4.0,6.0,94,0.00,,,0.00,0.000000,,2013-06-16 06:43:00,
2013-06-16 02:52:00,64.0,62.0,-100.00,West,277,4.0,6.0,94,0.00,,,0.00,0.000000,,2013-06-16 06:52:00,
2013-06-16 03:01:00,64.0,62.0,-100.00,West,277,4.0,6.0,94,0.00,,,0.00,0.000000,,2013-06-16 07:01:00,
2013-06-16 03:33:00,63.0,61.0,-100.00,SE,145,3.0,4.0,94,0.00,,,0.00,0.000000,,2013-06-16 07:33:00,
2013-06-16 03:43:00,63.0,61.0,-100.00,SE,145,3.0,4.0,94,0.00,,,0.00,0.000000,,2013-06-16 07:43:00,
2013-06-16 03:53:00,63.0,61.0,-100.00,SE,145,3.0,4.0,94,0.00,,,0.00,0.000000,,2013-06-16 07:53:00,
2013-06-16 04:02:00,63.0,61.0,-100.00,SE,145,3.0,4.0,94,0.00,,,0.00,0.000000,,2013-06-16 08:02:00,
2013-06-16 04:34:00,62.0,61.0,-100.00,WSW,258,2.0,4.0,97,0.00,,,0.00,0.000000,,2013-06-16 08:34:00,
2013-06-16 04:43:00,62.0,61.0,-100.00,WSW,258,2.0,4.0,97,0.00,,,0.00,0.000000,,2013-06-16 08:43:00,
2013-06-16 04:54:00,62.0,61.0,-100.00,WSW,258,2.0,4.0,97,0.00,,,0.00,0.000000,,2013-06-16 08:54:00,
2013-06-16 05:02:00,62.0,61.0,-100.00,WSW,258,2.0,4.0,97,0.00,,,0.00,0.000000,,2013-06-16 09:02:00,
2013-06-16 05:33:00,61.0,60.0,-100.00,SSE,147,1.0,3.0,98,0.00,,,0.00,0.000000,,2013-06-16 09:33:00,
2013-06-16 05:43:00,61.0,60.0,-100.00,SSE,147,1.0,3.0,98,0.00,,,0.00,0.000000,,2013-06-16 09:43:00,
2013-06-16 05:52:00,61.0,60.0,-100.00,SSE,147,1.0,3.0,98,0.00,,,0.00,0.000000,,2013-06-16 09:52:00,
2013-06-16 06:02:00,61.0,60.0,-100.00,SSE,147,1.0,3.0,98,0.00,,,0.00,0.000000,,2013-06-16 10:02:00,
2013-06-16 06:33:00,60.0,59.0,-100.00,SSW,200,3.0,4.0,98,0.00,,,0.00,0.000000,,2013-06-16 10:33:00,
2013-06-16 06:43:00,60.0,59.0,-100.00,SSW,200,3.0,4.0,98,0.00,,,0.00,0.000000,,2013-06-16 10:43:00,
2013-06-16 06:54:00,60.0,59.0,-100.00,SSW,200,3.0,4.0,98,0.00,,,0.00,0.000000,,2013-06-16 10:54:00,
2013-06-16 07:02:00,60.0,59.0,-100.00,SSW,200,3.0,4.0,98,0.00,,,0.00,0.000000,,2013-06-16 11:02:00,
2013-06-16 07:34:00,60.0,59.0,-100.00,East,96,1.0,3.0,98,0.00,,,0.00,13.000000,,2013-06-16 11:34:00,
2013-06-16 07:43:00,60.0,59.0,-100.00,East,96,1.0,3.0,98,0.00,,,0.00,13.000000,,2013-06-16 11:43:00,
2013-06-16 07:53:00,60.0,59.0,-100.00,East,96,1.0,3.0,98,0.00,,,0.00,13.000000,,2013-06-16 11:53:00,
2013-06-16 08:02:00,60.0,59.0,-100.00,East,96,1.0,3.0,98,0.00,,,0.00,13.000000,,2013-06-16 12:02:00,
2013-06-16 08:33:00,64.0,63.0,-100.00,WNW,283,2.0,3.0,98,0.00,,,0.00,47.000000,,2013-06-16 12:33:00,
2013-06-16 08:43:00,64.0,63.0,-100.00,WNW,283,2.0,3.0,98,0.00,,,0.00,47.000000,,2013-06-16 12:43:00,
2013-06-16 08:53:00,64.0,63.0,-100.00,WNW,283,2.0,3.0,98,0.00,,,0.00,47.000000,,2013-06-16 12:53:00,
2013-06-16 09:01:00,64.0,63.0,-100.00,WNW,283,2.0,3.0,98,0.00,,,0.00,47.000000,,2013-06-16 13:01:00,
2013-06-16 09:34:00,71.0,69.0,-100.00,NNW,329,3.0,5.0,94,-99.99,,,0.00,83.000000,,2013-06-16 13:34:00,
2013-06-16 09:43:00,71.0,69.0,-100.00,NNW,329,3.0,5.0,94,-99.99,,,0.00,83.000000,,2013-06-16 13:43:00,
2013-06-16 09:54:00,71.0,69.0,-100.00,NNW,329,3.0,5.0,94,-99.99,,,0.00,83.000000,,2013-06-16 13:54:00,
2013-06-16 10:02:00,71.0,69.0,-100.00,NNW,329,3.0,5.0,94,-99.99,,,0.00,83.000000,,2013-06-16 14:02:00,
2013-06-16 10:34:00,81.0,71.0,-100.00,WNW,296,6.0,11.0,72,0.00,,,0.00,544.000000,,2013-06-16 14:34:00,
2013-06-16 10:44:00,81.0,71.0,-100.00,WNW,296,6.0,11.0,72,0.00,,,0.00,544.000000,,2013-06-16 14:44:00,
2013-06-16 10:53:00,81.0,71.0,-100.00,WNW,296,6.0,11.0,72,0.00,,,0.00,544.000000,,2013-06-16 14:53:00,
2013-06-16 11:02:00,81.0,71.0,-100.00,WNW,296,6.0,11.0,72,0.00,,,0.00,544.000000,,2013-06-16 15:02:00,
2013-06-16 11:34:00,81.0,70.0,-100.00,NW,325,5.0,16.0,70,0.00,,,0.00,632.000000,,2013-06-16 15:34:00,
2013-06-16 11:43:00,81.0,70.0,-100.00,NW,325,5.0,16.0,70,0.00,,,0.00,632.000000,,2013-06-16 15:43:00,
2013-06-16 11:53:00,81.0,70.0,-100.00,NW,325,5.0,16.0,70,0.00,,,0.00,632.000000,,2013-06-16 15:53:00,
2013-06-16 12:02:00,81.0,70.0,-100.00,NW,325,5.0,16.0,70,0.00,,,0.00,632.000000,,2013-06-16 16:02:00,
2013-06-16 12:33:00,85.0,70.0,-100.00,NW,323,7.0,11.0,60,0.00,,,0.00,812.000000,,2013-06-16 16:33:00,
2013-06-16 12:43:00,85.0,70.0,-100.00,NW,323,7.0,11.0,60,0.00,,,0.00,812.000000,,2013-06-16 16:43:00,
2013-06-16 12:53:00,85.0,70.0,-100.00,NW,323,7.0,11.0,60,0.00,,,0.00,812.000000,,2013-06-16 16:53:00,
2013-06-16 13:02:00,85.0,70.0,-100.00,NW,323,7.0,11.0,60,0.00,,,0.00,812.000000,,2013-06-16 17:02:00,
2013-06-16 13:34:00,85.0,65.0,-100.00,NNW,337,5.0,11.0,51,0.00,,,0.00,888.000000,,2013-06-16 17:34:00,
2013-06-16 13:43:00,85.0,65.0,-100.00,NNW,337,5.0,11.0,51,0.00,,,0.00,888.000000,,2013-06-16 17:43:00,
2013-06-16 13:53:00,85.0,65.0,-100.00,NNW,337,5.0,11.0,51,0.00,,,0.00,888.000000,,2013-06-16 17:53:00,
2013-06-16 14:02:00,85.0,65.0,-100.00,NNW,337,5.0,11.0,51,0.00,,,0.00,888.000000,,2013-06-16 18:02:00,
2013-06-16 14:34:00,87.0,66.0,-100.00,NW,311,7.0,11.0,50,0.00,,,0.00,1017.000000,,2013-06-16 18:34:00,
2013-06-16 14:43:00,87.0,66.0,-100.00,NW,311,7.0,11.0,50,0.00,,,0.00,1017.000000,,2013-06-16 18:43:00,
2013-06-16 14:52:00,87.0,66.0,-100.00,NW,311,7.0,11.0,50,0.00,,,0.00,1017.000000,,2013-06-16 18:52:00,
2013-06-16 15:01:00,87.0,66.0,-100.00,NW,311,7.0,11.0,50,0.00,,,0.00,1017.000000,,2013-06-16 19:01:00,
2013-06-16 15:34:00,85.0,73.0,-100.00,West,273,2.0,10.0,67,0.00,,,0.00,456.000000,,2013-06-16 19:34:00,
2013-06-16 15:43:00,85.0,73.0,-100.00,West,273,2.0,10.0,67,0.00,,,0.00,456.000000,,2013-06-16 19:43:00,
2013-06-16 15:54:00,85.0,73.0,-100.00,West,273,2.0,10.0,67,0.00,,,0.00,456.000000,,2013-06-16 19:54:00,
2013-06-16 16:02:00,85.0,73.0,-100.00,West,273,2.0,10.0,67,0.00,,,0.00,456.000000,,2013-06-16 20:02:00,
2013-06-16 16:33:00,88.0,70.0,-100.00,West,270,5.0,8.0,56,0.00,,,0.00,712.000000,,2013-06-16 20:33:00,
2013-06-16 16:43:00,88.0,70.0,-100.00,West,270,5.0,8.0,56,0.00,,,0.00,712.000000,,2013-06-16 20:43:00,
2013-06-16 16:53:00,88.0,70.0,-100.00,West,270,5.0,8.0,56,0.00,,,0.00,712.000000,,2013-06-16 20:53:00,
2013-06-16 17:02:00,88.0,70.0,-100.00,West,270,5.0,8.0,56,0.00,,,0.00,712.000000,,2013-06-16 21:02:00,
2013-06-16 17:33:00,85.0,67.0,-100.00,WSW,256,3.0,11.0,55,0.00,,,0.00,566.000000,,2013-06-16 21:33:00,
2013-06-16 17:42:00,85.0,67.0,-100.00,WSW,256,3.0,11.0,55,0.00,,,0.00,566.000000,,2013-06-16 21:42:00,
2013-06-16 17:53:00,85.0,67.0,-100.00,WSW,256,3.0,11.0,55,0.00,,,0.00,566.000000,,2013-06-16 21:53:00,
2013-06-16 18:01:00,85.0,67.0,-100.00,WSW,256,3.0,11.0,55,0.00,,,0.00,566.000000,,2013-06-16 22:01:00,
2013-06-16 18:32:00,82.0,71.0,-100.00,West,267,2.0,9.0,70,0.00,,,-99.99,172.000000,,2013-06-16 22:32:00,
2013-06-16 18:42:00,82.0,71.0,-100.00,West,267,2.0,9.0,70,0.00,,,-99.99,172.000000,,2013-06-16 22:42:00,
2013-06-16 18:52:00,82.0,71.0,-100.00,West,267,2.0,9.0,70,0.00,,,-99.99,172.000000,,2013-06-16 22:52:00,
2013-06-16 19:02:00,82.0,71.0,-100.00,West,267,2.0,9.0,70,0.00,,,-99.99,172.000000,,2013-06-16 23:02:00,
2013-06-16 19:32:00,80.0,72.0,-100.00,WSW,256,4.0,7.0,76,0.00,,,0.00,84.000000,,2013-06-16 23:32:00,
2013-06-16 19:42:00,80.0,72.0,-100.00,WSW,256,4.0,7.0,76,0.00,,,0.00,84.000000,,2013-06-16 23:42:00,
2013-06-16 19:52:00,80.0,72.0,-100.00,WSW,256,4.0,7.0,76,0.00,,,0.00,84.000000,,2013-06-16 23:52:00,
2013-06-16 20:02:00,80.0,72.0,-100.00,WSW,256,4.0,7.0,76,0.00,,,0.00,84.000000,,2013-06-17 00:02:00,
2013-06-16 20:32:00,77.0,72.0,-100.00,West,259,3.0,7.0,85,0.00,,,0.00,37.000000,,2013-06-17 00:32:00,
2013-06-16 20:43:00,77.0,72.0,-100.00,West,259,3.0,7.0,85,0.00,,,0.00,37.000000,,2013-06-17 00:43:00,
2013-06-16 20:52:00,77.0,72.0,-100.00,West,259,3.0,7.0,85,0.00,,,0.00,37.000000,,2013-06-17 00:52:00,
2013-06-16 21:02:00,77.0,72.0,-100.00,West,259,3.0,7.0,85,0.00,,,0.00,37.000000,,2013-06-17 01:02:00,
2013-06-16 21:32:00,73.0,70.0,-100.00,West,264,3.0,5.0,90,0.00,,,0.00,4.000000,,2013-06-17 01:32:00,
2013-06-16 21:43:00,73.0,70.0,-100.00,West,264,3.0,5.0,90,0.00,,,0.00,4.000000,,2013-06-17 01:43:00,
2013-06-16 21:53:00,73.0,70.0,-100.00,West,264,3.0,5.0,90,0.00,,,0.00,4.000000,,2013-06-17 01:53:00,
2013-06-16 22:02:00,73.0,70.0,-100.00,West,264,3.0,5.0,90,0.00,,,0.00,4.000000,,2013-06-17 02:02:00,
2013-06-16 22:34:00,74.0,71.0,-100.00,West,268,6.0,12.0,89,0.00,,,0.00,0.000000,,2013-06-17 02:34:00,
2013-06-16 22:43:00,74.0,71.0,-100.00,West,268,6.0,12.0,89,0.00,,,0.00,0.000000,,2013-06-17 02:43:00,
2013-06-16 22:53:00,74.0,71.0,-100.00,West,268,6.0,12.0,89,0.00,,,0.00,0.000000,,2013-06-17 02:53:00,
2013-06-16 23:02:00,74.0,71.0,-100.00,West,268,6.0,12.0,89,0.00,,,0.00,0.000000,,2013-06-17 03:02:00,
2013-06-16 23:33:00,73.0,67.0,-100.00,West,271,5.0,12.0,81,0.00,,,0.00,0.000000,,2013-06-17 03:33:00,
2013-06-16 23:44:00,73.0,67.0,-100.00,West,271,5.0,12.0,81,0.00,,,0.00,0.000000,,2013-06-17 03:44:00,
2013-06-16 23:54:00,73.0,67.0,-100.00,West,271,5.0,12.0,81,0.00,,,0.00,0.000000,,2013-06-17 03:54:00,